Aérodrome :
LOGIN :

S'inscrire | Disclaimer

   EN    FR    IT 

 










Légende :    VFR   VFR Marginal   IFR   IFR Intensif   IFR Très Intensif
Visi : 
Plafond : 
>= 8 km
>= 3000ft
5 à 8 km
1000 à 3000 ft
1500m à 5 km
500 à 1000 ft
800 à 1500m
200 à 500 ft
< 800m
< 200 ft
Symboles :   Orages  Brouillard  Fortes neiges  Fortes précipitations  Vent > 20 kt
SIGMETs :   Divers  Orages  Givrage  Turbulence  Onde Orograph.  Cendres Volcan.






- Altitude de l'aérodrome : 80 ft
- Code IATA : LPL


EGGP - Liverpool John Lennon

DERNIER METAR :
  • 160920Z VRB03KT 9999 FEW025 05/02 Q0997

METARs EXPIRÉS :
  • 160850Z VRB03KT 9999 FEW029 04/01 Q0997
  • 160820Z 24005KT 9999 FEW029 05/02 Q0996
  • 160750Z 21005KT 9999 FEW033 05/02 Q0996
  • 160720Z 24011KT 9999 FEW033 06/02 Q0995
  • 160650Z 23015KT 9999 FEW033 06/03 Q0994

TAF AMD TAF EGGP
Valide du 16 à 06h jusqu'au 17 à 06h UTC


160616Z 1606/1706 17009KT 9999 FEW030
TEMPO 1606/1610 25010KT
PROB30
TEMPO 1606/1609 23015G25KT 7000 SHRA
PROB30 1702/1706 7000
ATIS : +44 151 907 2000 (option 5 or ext 5150)
Météo : +44 871 750 5150



MET'MAP, la Météo Aéronautique d'un coup d'oeil ! - Copyright ORBIFLY Décembre 2007 - Disclaimer

ORBIFLY MET'MAP TEAM :

Programmation & Développement : Alexandra Zaïnal
Sur une idée originale de : Baudouin d'Aumeries
Assistance à la programmation : Marc-Olivier Méhu
Soutien technique & logistique : Manuel Goepfert

Contact : metmap@orbifly.com




SOURCES & CREDITS :

   NOAA